sensor_id;sensor_type;location;lat;lon;timestamp;P1;durP1;ratioP1;P2;durP2;ratioP2
10699;SDS011;5401;41.986;21.452;2024-02-23T00:01:55;43.53;;;28.90;;
10699;SDS011;5401;41.986;21.452;2024-02-23T00:04:22;45.17;;;29.70;;
10699;SDS011;5401;41.986;21.452;2024-02-23T00:06:50;43.53;;;29.87;;
10699;SDS011;5401;41.986;21.452;2024-02-23T00:09:19;44.03;;;30.53;;
10699;SDS011;5401;41.986;21.452;2024-02-23T00:11:46;42.77;;;29.27;;
10699;SDS011;5401;41.986;21.452;2024-02-23T00:14:15;45.03;;;29.13;;
10699;SDS011;5401;41.986;21.452;2024-02-23T00:16:44;42.00;;;28.43;;
10699;SDS011;5401;41.986;21.452;2024-02-23T00:19:11;44.47;;;28.43;;
10699;SDS011;5401;41.986;21.452;2024-02-23T00:21:40;39.07;;;29.13;;
10699;SDS011;5401;41.986;21.452;2024-02-23T00:24:08;35.77;;;28.17;;
10699;SDS011;5401;41.986;21.452;2024-02-23T00:26:37;36.90;;;27.40;;
10699;SDS011;5401;41.986;21.452;2024-02-23T00:29:04;36.20;;;27.27;;
10699;SDS011;5401;41.986;21.452;2024-02-23T00:31:34;38.97;;;26.77;;
10699;SDS011;5401;41.986;21.452;2024-02-23T00:34:01;36.13;;;27.30;;
10699;SDS011;5401;41.986;21.452;2024-02-23T00:36:29;34.57;;;27.53;;
10699;SDS011;5401;41.986;21.452;2024-02-23T00:38:56;34.87;;;28.60;;
10699;SDS011;5401;41.986;21.452;2024-02-23T00:41:24;38.00;;;27.37;;
10699;SDS011;5401;41.986;21.452;2024-02-23T00:43:52;35.80;;;27.90;;
10699;SDS011;5401;41.986;21.452;2024-02-23T00:46:20;40.80;;;26.80;;
10699;SDS011;5401;41.986;21.452;2024-02-23T00:48:47;36.73;;;28.27;;
10699;SDS011;5401;41.986;21.452;2024-02-23T00:51:15;44.33;;;29.57;;
10699;SDS011;5401;41.986;21.452;2024-02-23T00:53:43;43.03;;;29.07;;
10699;SDS011;5401;41.986;21.452;2024-02-23T00:56:10;39.87;;;28.93;;
10699;SDS011;5401;41.986;21.452;2024-02-23T00:58:38;47.00;;;29.97;;
10699;SDS011;5401;41.986;21.452;2024-02-23T01:01:07;39.30;;;28.10;;
10699;SDS011;5401;41.986;21.452;2024-02-23T01:03:35;43.30;;;28.37;;
10699;SDS011;5401;41.986;21.452;2024-02-23T01:06:02;36.33;;;28.63;;
10699;SDS011;5401;41.986;21.452;2024-02-23T01:08:30;42.30;;;30.07;;
10699;SDS011;5401;41.986;21.452;2024-02-23T01:10:58;40.73;;;28.00;;
10699;SDS011;5401;41.986;21.452;2024-02-23T01:13:25;42.30;;;29.40;;
10699;SDS011;5401;41.986;21.452;2024-02-23T01:15:53;37.67;;;28.40;;
10699;SDS011;5401;41.986;21.452;2024-02-23T01:18:22;38.33;;;28.97;;
10699;SDS011;5401;41.986;21.452;2024-02-23T01:20:49;43.27;;;29.07;;
10699;SDS011;5401;41.986;21.452;2024-02-23T01:23:17;41.37;;;28.43;;
10699;SDS011;5401;41.986;21.452;2024-02-23T01:25:44;38.87;;;28.57;;
10699;SDS011;5401;41.986;21.452;2024-02-23T01:28:12;40.33;;;27.70;;
10699;SDS011;5401;41.986;21.452;2024-02-23T01:30:39;41.47;;;26.87;;
10699;SDS011;5401;41.986;21.452;2024-02-23T01:33:06;38.13;;;28.77;;
10699;SDS011;5401;41.986;21.452;2024-02-23T01:35:35;38.13;;;27.33;;
10699;SDS011;5401;41.986;21.452;2024-02-23T01:38:03;34.23;;;27.87;;
10699;SDS011;5401;41.986;21.452;2024-02-23T01:40:31;33.60;;;27.37;;
10699;SDS011;5401;41.986;21.452;2024-02-23T01:43:00;40.40;;;28.20;;
10699;SDS011;5401;41.986;21.452;2024-02-23T01:45:28;40.93;;;27.90;;
10699;SDS011;5401;41.986;21.452;2024-02-23T01:47:56;36.23;;;27.57;;
10699;SDS011;5401;41.986;21.452;2024-02-23T01:50:24;42.93;;;30.07;;
10699;SDS011;5401;41.986;21.452;2024-02-23T01:52:53;42.70;;;30.47;;
10699;SDS011;5401;41.986;21.452;2024-02-23T01:55:22;39.83;;;30.77;;
10699;SDS011;5401;41.986;21.452;2024-02-23T01:57:50;39.20;;;28.17;;
10699;SDS011;5401;41.986;21.452;2024-02-23T02:00:18;39.97;;;30.70;;
10699;SDS011;5401;41.986;21.452;2024-02-23T02:02:47;43.30;;;30.27;;
10699;SDS011;5401;41.986;21.452;2024-02-23T02:05:15;39.50;;;28.40;;
10699;SDS011;5401;41.986;21.452;2024-02-23T02:07:42;39.67;;;28.20;;
10699;SDS011;5401;41.986;21.452;2024-02-23T02:10:11;43.73;;;30.33;;
10699;SDS011;5401;41.986;21.452;2024-02-23T02:12:39;48.37;;;31.23;;
10699;SDS011;5401;41.986;21.452;2024-02-23T02:15:07;41.70;;;29.03;;
10699;SDS011;5401;41.986;21.452;2024-02-23T02:17:35;43.60;;;27.90;;
10699;SDS011;5401;41.986;21.452;2024-02-23T02:20:02;35.23;;;27.57;;
10699;SDS011;5401;41.986;21.452;2024-02-23T02:22:31;40.20;;;28.13;;
10699;SDS011;5401;41.986;21.452;2024-02-23T02:25:00;36.50;;;26.73;;
10699;SDS011;5401;41.986;21.452;2024-02-23T02:27:29;39.20;;;28.30;;
10699;SDS011;5401;41.986;21.452;2024-02-23T02:29:56;36.30;;;27.83;;
10699;SDS011;5401;41.986;21.452;2024-02-23T02:32:24;38.03;;;26.77;;
10699;SDS011;5401;41.986;21.452;2024-02-23T02:34:51;35.13;;;26.47;;
10699;SDS011;5401;41.986;21.452;2024-02-23T02:37:19;37.80;;;27.60;;
10699;SDS011;5401;41.986;21.452;2024-02-23T02:39:46;37.27;;;24.93;;
10699;SDS011;5401;41.986;21.452;2024-02-23T02:42:14;39.53;;;28.20;;
10699;SDS011;5401;41.986;21.452;2024-02-23T02:44:43;35.27;;;27.07;;
10699;SDS011;5401;41.986;21.452;2024-02-23T02:47:12;41.00;;;27.43;;
10699;SDS011;5401;41.986;21.452;2024-02-23T02:49:39;35.17;;;26.93;;
10699;SDS011;5401;41.986;21.452;2024-02-23T02:52:07;35.60;;;27.07;;
10699;SDS011;5401;41.986;21.452;2024-02-23T02:54:35;38.83;;;27.40;;
10699;SDS011;5401;41.986;21.452;2024-02-23T02:57:02;38.27;;;27.10;;
10699;SDS011;5401;41.986;21.452;2024-02-23T02:59:33;35.27;;;26.07;;
10699;SDS011;5401;41.986;21.452;2024-02-23T03:02:02;38.57;;;28.97;;
10699;SDS011;5401;41.986;21.452;2024-02-23T03:04:29;34.40;;;26.83;;
10699;SDS011;5401;41.986;21.452;2024-02-23T03:06:57;38.47;;;27.40;;
10699;SDS011;5401;41.986;21.452;2024-02-23T03:09:24;38.33;;;26.97;;
10699;SDS011;5401;41.986;21.452;2024-02-23T03:11:52;35.50;;;27.23;;
10699;SDS011;5401;41.986;21.452;2024-02-23T03:14:19;37.13;;;27.03;;
10699;SDS011;5401;41.986;21.452;2024-02-23T03:16:47;38.27;;;28.17;;
10699;SDS011;5401;41.986;21.452;2024-02-23T03:19:18;39.63;;;27.20;;
10699;SDS011;5401;41.986;21.452;2024-02-23T03:21:48;38.07;;;27.60;;
10699;SDS011;5401;41.986;21.452;2024-02-23T03:24:15;43.50;;;29.93;;
10699;SDS011;5401;41.986;21.452;2024-02-23T03:26:43;39.63;;;27.67;;
10699;SDS011;5401;41.986;21.452;2024-02-23T03:29:10;37.00;;;28.17;;
10699;SDS011;5401;41.986;21.452;2024-02-23T03:31:38;33.77;;;27.37;;
10699;SDS011;5401;41.986;21.452;2024-02-23T03:34:05;40.63;;;27.50;;
10699;SDS011;5401;41.986;21.452;2024-02-23T03:36:36;35.83;;;26.57;;
10699;SDS011;5401;41.986;21.452;2024-02-23T03:39:03;34.30;;;25.77;;
10699;SDS011;5401;41.986;21.452;2024-02-23T03:41:31;34.87;;;26.43;;
10699;SDS011;5401;41.986;21.452;2024-02-23T03:43:58;35.03;;;26.40;;
10699;SDS011;5401;41.986;21.452;2024-02-23T03:46:26;35.13;;;26.50;;
10699;SDS011;5401;41.986;21.452;2024-02-23T03:48:53;36.07;;;27.30;;
10699;SDS011;5401;41.986;21.452;2024-02-23T03:51:21;35.73;;;25.90;;
10699;SDS011;5401;41.986;21.452;2024-02-23T03:53:50;36.07;;;26.23;;
10699;SDS011;5401;41.986;21.452;2024-02-23T03:56:17;36.03;;;25.43;;
10699;SDS011;5401;41.986;21.452;2024-02-23T03:58:45;38.90;;;27.43;;
10699;SDS011;5401;41.986;21.452;2024-02-23T04:01:12;34.53;;;27.43;;
10699;SDS011;5401;41.986;21.452;2024-02-23T04:03:39;34.47;;;27.13;;
10699;SDS011;5401;41.986;21.452;2024-02-23T04:06:07;39.57;;;26.43;;
10699;SDS011;5401;41.986;21.452;2024-02-23T04:08:34;36.63;;;25.43;;
10699;SDS011;5401;41.986;21.452;2024-02-23T04:11:04;37.73;;;24.83;;
10699;SDS011;5401;41.986;21.452;2024-02-23T04:13:34;34.53;;;26.00;;
10699;SDS011;5401;41.986;21.452;2024-02-23T04:16:01;34.43;;;24.97;;
10699;SDS011;5401;41.986;21.452;2024-02-23T04:18:28;34.13;;;26.17;;
10699;SDS011;5401;41.986;21.452;2024-02-23T04:20:57;40.10;;;25.80;;
10699;SDS011;5401;41.986;21.452;2024-02-23T04:23:24;94.73;;;39.17;;
10699;SDS011;5401;41.986;21.452;2024-02-23T04:25:52;47.67;;;29.10;;
10699;SDS011;5401;41.986;21.452;2024-02-23T04:28:21;45.73;;;27.80;;
10699;SDS011;5401;41.986;21.452;2024-02-23T04:30:48;34.47;;;26.07;;
10699;SDS011;5401;41.986;21.452;2024-02-23T04:33:16;37.60;;;27.63;;
10699;SDS011;5401;41.986;21.452;2024-02-23T04:35:43;40.83;;;29.33;;
10699;SDS011;5401;41.986;21.452;2024-02-23T04:38:11;34.23;;;25.50;;
10699;SDS011;5401;41.986;21.452;2024-02-23T04:40:38;38.63;;;25.77;;
10699;SDS011;5401;41.986;21.452;2024-02-23T04:43:05;39.27;;;27.03;;
10699;SDS011;5401;41.986;21.452;2024-02-23T04:45:34;42.47;;;30.47;;
10699;SDS011;5401;41.986;21.452;2024-02-23T04:48:02;42.13;;;30.57;;
10699;SDS011;5401;41.986;21.452;2024-02-23T04:50:31;60.77;;;43.37;;
10699;SDS011;5401;41.986;21.452;2024-02-23T04:52:58;48.67;;;34.60;;
10699;SDS011;5401;41.986;21.452;2024-02-23T04:55:25;40.30;;;29.03;;
10699;SDS011;5401;41.986;21.452;2024-02-23T04:57:53;37.03;;;26.90;;
10699;SDS011;5401;41.986;21.452;2024-02-23T05:00:21;34.17;;;26.80;;
10699;SDS011;5401;41.986;21.452;2024-02-23T05:02:50;39.47;;;27.17;;
10699;SDS011;5401;41.986;21.452;2024-02-23T05:05:17;39.60;;;28.07;;
10699;SDS011;5401;41.986;21.452;2024-02-23T05:07:45;42.83;;;26.80;;
10699;SDS011;5401;41.986;21.452;2024-02-23T05:10:12;46.83;;;30.93;;
10699;SDS011;5401;41.986;21.452;2024-02-23T05:12:40;36.47;;;27.70;;
10699;SDS011;5401;41.986;21.452;2024-02-23T05:15:08;78.67;;;52.10;;
10699;SDS011;5401;41.986;21.452;2024-02-23T05:17:36;42.33;;;30.83;;
10699;SDS011;5401;41.986;21.452;2024-02-23T05:20:05;42.50;;;29.70;;
10699;SDS011;5401;41.986;21.452;2024-02-23T05:22:34;38.30;;;27.70;;
10699;SDS011;5401;41.986;21.452;2024-02-23T05:25:01;39.07;;;29.37;;
10699;SDS011;5401;41.986;21.452;2024-02-23T05:27:29;44.80;;;27.90;;
10699;SDS011;5401;41.986;21.452;2024-02-23T05:29:56;37.33;;;27.93;;
10699;SDS011;5401;41.986;21.452;2024-02-23T05:32:24;44.67;;;29.20;;
10699;SDS011;5401;41.986;21.452;2024-02-23T05:34:51;35.67;;;27.97;;
10699;SDS011;5401;41.986;21.452;2024-02-23T05:37:21;36.57;;;27.73;;
10699;SDS011;5401;41.986;21.452;2024-02-23T05:39:48;48.43;;;28.50;;
10699;SDS011;5401;41.986;21.452;2024-02-23T05:42:16;37.20;;;26.83;;
10699;SDS011;5401;41.986;21.452;2024-02-23T05:44:43;37.17;;;25.27;;
10699;SDS011;5401;41.986;21.452;2024-02-23T05:47:11;34.53;;;26.23;;
10699;SDS011;5401;41.986;21.452;2024-02-23T05:49:39;36.37;;;26.40;;
10699;SDS011;5401;41.986;21.452;2024-02-23T05:52:07;36.43;;;24.90;;
10699;SDS011;5401;41.986;21.452;2024-02-23T05:54:36;33.00;;;24.70;;
10699;SDS011;5401;41.986;21.452;2024-02-23T05:57:04;38.43;;;24.37;;
10699;SDS011;5401;41.986;21.452;2024-02-23T05:59:31;37.93;;;26.87;;
10699;SDS011;5401;41.986;21.452;2024-02-23T06:01:59;44.00;;;28.17;;
10699;SDS011;5401;41.986;21.452;2024-02-23T06:04:26;38.13;;;27.13;;
10699;SDS011;5401;41.986;21.452;2024-02-23T06:06:54;39.30;;;26.83;;
10699;SDS011;5401;41.986;21.452;2024-02-23T06:09:22;41.10;;;29.37;;
10699;SDS011;5401;41.986;21.452;2024-02-23T06:11:51;41.27;;;30.63;;
10699;SDS011;5401;41.986;21.452;2024-02-23T06:14:18;58.97;;;30.70;;
10699;SDS011;5401;41.986;21.452;2024-02-23T06:16:45;44.20;;;29.90;;
10699;SDS011;5401;41.986;21.452;2024-02-23T06:19:14;34.93;;;26.53;;
10699;SDS011;5401;41.986;21.452;2024-02-23T06:21:42;48.37;;;30.93;;
10699;SDS011;5401;41.986;21.452;2024-02-23T06:24:10;60.67;;;34.43;;
10699;SDS011;5401;41.986;21.452;2024-02-23T06:26:37;45.43;;;30.63;;
10699;SDS011;5401;41.986;21.452;2024-02-23T06:29:06;53.70;;;30.33;;
10699;SDS011;5401;41.986;21.452;2024-02-23T06:31:36;61.90;;;34.77;;
10699;SDS011;5401;41.986;21.452;2024-02-23T06:34:04;46.77;;;31.90;;
10699;SDS011;5401;41.986;21.452;2024-02-23T06:36:31;49.40;;;30.90;;
10699;SDS011;5401;41.986;21.452;2024-02-23T06:38:59;45.80;;;31.20;;
10699;SDS011;5401;41.986;21.452;2024-02-23T06:41:26;88.20;;;39.63;;
10699;SDS011;5401;41.986;21.452;2024-02-23T06:43:54;53.83;;;31.63;;
10699;SDS011;5401;41.986;21.452;2024-02-23T06:46:23;65.73;;;35.07;;
10699;SDS011;5401;41.986;21.452;2024-02-23T06:48:50;106.13;;;46.47;;
10699;SDS011;5401;41.986;21.452;2024-02-23T06:51:18;46.23;;;31.17;;
10699;SDS011;5401;41.986;21.452;2024-02-23T06:53:46;43.93;;;31.53;;
10699;SDS011;5401;41.986;21.452;2024-02-23T06:56:13;71.33;;;38.17;;
10699;SDS011;5401;41.986;21.452;2024-02-23T06:58:41;45.40;;;29.37;;
10699;SDS011;5401;41.986;21.452;2024-02-23T07:01:08;51.47;;;30.00;;
10699;SDS011;5401;41.986;21.452;2024-02-23T07:03:39;46.57;;;30.33;;
10699;SDS011;5401;41.986;21.452;2024-02-23T07:06:09;41.43;;;26.60;;
10699;SDS011;5401;41.986;21.452;2024-02-23T07:08:36;38.50;;;26.97;;
10699;SDS011;5401;41.986;21.452;2024-02-23T07:11:04;59.33;;;27.40;;
10699;SDS011;5401;41.986;21.452;2024-02-23T07:13:31;39.03;;;23.83;;
10699;SDS011;5401;41.986;21.452;2024-02-23T07:16:00;29.53;;;21.93;;
10699;SDS011;5401;41.986;21.452;2024-02-23T07:18:27;32.87;;;20.93;;
10699;SDS011;5401;41.986;21.452;2024-02-23T07:20:56;29.03;;;22.27;;
10699;SDS011;5401;41.986;21.452;2024-02-23T07:23:24;26.80;;;19.73;;
10699;SDS011;5401;41.986;21.452;2024-02-23T07:25:51;30.43;;;21.33;;
10699;SDS011;5401;41.986;21.452;2024-02-23T07:28:20;34.40;;;23.10;;
10699;SDS011;5401;41.986;21.452;2024-02-23T07:30:49;29.13;;;20.83;;
10699;SDS011;5401;41.986;21.452;2024-02-23T07:33:18;26.60;;;19.80;;
10699;SDS011;5401;41.986;21.452;2024-02-23T07:35:45;30.10;;;18.50;;
10699;SDS011;5401;41.986;21.452;2024-02-23T07:38:14;24.87;;;20.37;;
10699;SDS011;5401;41.986;21.452;2024-02-23T07:40:43;25.13;;;18.20;;
10699;SDS011;5401;41.986;21.452;2024-02-23T07:43:11;31.83;;;19.93;;
10699;SDS011;5401;41.986;21.452;2024-02-23T07:45:39;30.00;;;18.30;;
10699;SDS011;5401;41.986;21.452;2024-02-23T07:48:07;19.77;;;16.13;;
10699;SDS011;5401;41.986;21.452;2024-02-23T07:50:34;19.80;;;15.50;;
10699;SDS011;5401;41.986;21.452;2024-02-23T07:53:01;20.33;;;14.73;;
10699;SDS011;5401;41.986;21.452;2024-02-23T07:55:31;20.40;;;15.73;;
10699;SDS011;5401;41.986;21.452;2024-02-23T07:57:58;18.75;;;16.75;;
10699;SDS011;5401;41.986;21.452;2024-02-23T08:00:27;20.97;;;14.67;;
10699;SDS011;5401;41.986;21.452;2024-02-23T08:02:54;18.87;;;15.00;;
10699;SDS011;5401;41.986;21.452;2024-02-23T08:05:24;19.50;;;15.00;;
10699;SDS011;5401;41.986;21.452;2024-02-23T08:07:51;19.80;;;14.27;;
10699;SDS011;5401;41.986;21.452;2024-02-23T08:10:19;16.77;;;14.57;;
10699;SDS011;5401;41.986;21.452;2024-02-23T08:12:48;16.53;;;14.70;;
10699;SDS011;5401;41.986;21.452;2024-02-23T08:15:15;17.03;;;14.83;;
10699;SDS011;5401;41.986;21.452;2024-02-23T08:17:42;21.90;;;16.27;;
10699;SDS011;5401;41.986;21.452;2024-02-23T08:20:10;19.67;;;14.90;;
10699;SDS011;5401;41.986;21.452;2024-02-23T08:22:38;20.37;;;14.63;;
10699;SDS011;5401;41.986;21.452;2024-02-23T08:25:05;20.10;;;14.93;;
10699;SDS011;5401;41.986;21.452;2024-02-23T08:27:33;19.77;;;15.30;;
10699;SDS011;5401;41.986;21.452;2024-02-23T08:30:02;19.10;;;15.73;;
10699;SDS011;5401;41.986;21.452;2024-02-23T08:32:30;18.87;;;15.03;;
10699;SDS011;5401;41.986;21.452;2024-02-23T08:34:58;18.80;;;14.93;;
10699;SDS011;5401;41.986;21.452;2024-02-23T08:37:26;18.30;;;15.90;;
10699;SDS011;5401;41.986;21.452;2024-02-23T08:39:53;16.63;;;14.27;;
10699;SDS011;5401;41.986;21.452;2024-02-23T08:42:22;21.67;;;17.17;;
10699;SDS011;5401;41.986;21.452;2024-02-23T08:44:49;19.37;;;16.07;;
10699;SDS011;5401;41.986;21.452;2024-02-23T08:47:18;20.60;;;15.60;;
10699;SDS011;5401;41.986;21.452;2024-02-23T08:49:45;18.77;;;16.40;;
10699;SDS011;5401;41.986;21.452;2024-02-23T08:52:13;18.63;;;15.20;;
10699;SDS011;5401;41.986;21.452;2024-02-23T08:54:40;17.93;;;16.00;;
10699;SDS011;5401;41.986;21.452;2024-02-23T08:57:08;17.20;;;14.90;;
10699;SDS011;5401;41.986;21.452;2024-02-23T08:59:35;24.63;;;16.17;;
10699;SDS011;5401;41.986;21.452;2024-02-23T09:02:03;21.80;;;16.17;;
10699;SDS011;5401;41.986;21.452;2024-02-23T09:04:32;21.73;;;15.13;;
10699;SDS011;5401;41.986;21.452;2024-02-23T09:06:59;18.73;;;15.50;;
10699;SDS011;5401;41.986;21.452;2024-02-23T09:09:27;18.13;;;15.17;;
10699;SDS011;5401;41.986;21.452;2024-02-23T09:11:54;18.77;;;14.40;;
10699;SDS011;5401;41.986;21.452;2024-02-23T09:14:22;21.87;;;16.30;;
10699;SDS011;5401;41.986;21.452;2024-02-23T09:16:51;18.30;;;14.97;;
10699;SDS011;5401;41.986;21.452;2024-02-23T09:19:18;19.80;;;14.50;;
10699;SDS011;5401;41.986;21.452;2024-02-23T09:21:47;22.40;;;15.70;;
10699;SDS011;5401;41.986;21.452;2024-02-23T09:24:15;18.90;;;15.30;;
10699;SDS011;5401;41.986;21.452;2024-02-23T09:26:46;19.90;;;15.20;;
10699;SDS011;5401;41.986;21.452;2024-02-23T09:29:13;17.67;;;15.63;;
10699;SDS011;5401;41.986;21.452;2024-02-23T09:31:41;17.17;;;14.73;;
10699;SDS011;5401;41.986;21.452;2024-02-23T09:34:08;19.03;;;15.57;;
10699;SDS011;5401;41.986;21.452;2024-02-23T09:36:36;17.93;;;14.63;;
10699;SDS011;5401;41.986;21.452;2024-02-23T09:39:05;19.17;;;14.77;;
10699;SDS011;5401;41.986;21.452;2024-02-23T09:41:32;23.60;;;15.47;;
10699;SDS011;5401;41.986;21.452;2024-02-23T09:44:01;17.47;;;14.93;;
10699;SDS011;5401;41.986;21.452;2024-02-23T09:46:29;22.10;;;13.13;;
10699;SDS011;5401;41.986;21.452;2024-02-23T09:48:56;22.63;;;16.50;;
10699;SDS011;5401;41.986;21.452;2024-02-23T09:51:25;21.43;;;15.63;;
10699;SDS011;5401;41.986;21.452;2024-02-23T09:53:53;20.77;;;15.27;;
10699;SDS011;5401;41.986;21.452;2024-02-23T09:56:22;22.77;;;16.80;;
10699;SDS011;5401;41.986;21.452;2024-02-23T09:58:54;20.83;;;16.00;;
10699;SDS011;5401;41.986;21.452;2024-02-23T10:01:25;22.27;;;16.80;;
10699;SDS011;5401;41.986;21.452;2024-02-23T10:03:55;18.40;;;16.30;;
10699;SDS011;5401;41.986;21.452;2024-02-23T10:06:24;21.90;;;15.97;;
10699;SDS011;5401;41.986;21.452;2024-02-23T10:08:51;18.97;;;15.63;;
10699;SDS011;5401;41.986;21.452;2024-02-23T10:11:20;16.07;;;14.37;;
10699;SDS011;5401;41.986;21.452;2024-02-23T10:13:49;18.37;;;14.40;;
10699;SDS011;5401;41.986;21.452;2024-02-23T10:16:18;18.93;;;14.97;;
10699;SDS011;5401;41.986;21.452;2024-02-23T10:18:47;24.37;;;15.87;;
10699;SDS011;5401;41.986;21.452;2024-02-23T10:21:14;17.63;;;13.67;;
10699;SDS011;5401;41.986;21.452;2024-02-23T10:23:43;19.70;;;14.60;;
10699;SDS011;5401;41.986;21.452;2024-02-23T10:26:11;18.53;;;14.10;;
10699;SDS011;5401;41.986;21.452;2024-02-23T10:28:40;18.23;;;13.77;;
10699;SDS011;5401;41.986;21.452;2024-02-23T10:31:07;16.90;;;14.30;;
10699;SDS011;5401;41.986;21.452;2024-02-23T10:33:35;17.53;;;14.40;;
10699;SDS011;5401;41.986;21.452;2024-02-23T10:36:04;20.37;;;14.40;;
10699;SDS011;5401;41.986;21.452;2024-02-23T10:38:34;20.53;;;14.67;;
10699;SDS011;5401;41.986;21.452;2024-02-23T10:41:04;22.37;;;14.20;;
10699;SDS011;5401;41.986;21.452;2024-02-23T10:43:33;15.87;;;13.60;;
10699;SDS011;5401;41.986;21.452;2024-02-23T10:46:09;15.43;;;13.43;;
10699;SDS011;5401;41.986;21.452;2024-02-23T10:48:40;21.97;;;13.87;;
10699;SDS011;5401;41.986;21.452;2024-02-23T10:51:08;16.53;;;13.33;;
10699;SDS011;5401;41.986;21.452;2024-02-23T10:53:37;23.83;;;14.57;;
10699;SDS011;5401;41.986;21.452;2024-02-23T10:56:06;20.73;;;16.00;;
10699;SDS011;5401;41.986;21.452;2024-02-23T10:58:34;20.63;;;16.37;;
10699;SDS011;5401;41.986;21.452;2024-02-23T11:01:02;21.80;;;14.60;;
10699;SDS011;5401;41.986;21.452;2024-02-23T11:03:36;21.93;;;14.80;;
10699;SDS011;5401;41.986;21.452;2024-02-23T11:06:07;20.67;;;14.67;;
10699;SDS011;5401;41.986;21.452;2024-02-23T11:08:34;16.63;;;13.53;;
10699;SDS011;5401;41.986;21.452;2024-02-23T11:11:09;23.10;;;14.67;;
10699;SDS011;5401;41.986;21.452;2024-02-23T11:13:39;25.77;;;13.57;;
10699;SDS011;5401;41.986;21.452;2024-02-23T11:16:07;17.43;;;12.43;;
10699;SDS011;5401;41.986;21.452;2024-02-23T11:18:39;13.87;;;12.10;;
10699;SDS011;5401;41.986;21.452;2024-02-23T11:21:09;17.73;;;12.07;;
10699;SDS011;5401;41.986;21.452;2024-02-23T11:23:43;22.50;;;12.63;;
10699;SDS011;5401;41.986;21.452;2024-02-23T11:26:11;13.67;;;10.80;;
10699;SDS011;5401;41.986;21.452;2024-02-23T11:28:43;13.80;;;11.40;;
10699;SDS011;5401;41.986;21.452;2024-02-23T11:31:11;15.63;;;11.83;;
10699;SDS011;5401;41.986;21.452;2024-02-23T11:33:41;15.57;;;10.20;;
10699;SDS011;5401;41.986;21.452;2024-02-23T11:36:21;18.83;;;11.37;;
10699;SDS011;5401;41.986;21.452;2024-02-23T11:38:53;16.87;;;10.97;;
10699;SDS011;5401;41.986;21.452;2024-02-23T11:41:23;12.27;;;10.87;;
10699;SDS011;5401;41.986;21.452;2024-02-23T11:43:51;15.13;;;11.80;;
10699;SDS011;5401;41.986;21.452;2024-02-23T11:46:19;22.73;;;12.57;;
10699;SDS011;5401;41.986;21.452;2024-02-23T11:48:48;12.57;;;10.10;;
10699;SDS011;5401;41.986;21.452;2024-02-23T11:51:19;16.67;;;10.20;;
10699;SDS011;5401;41.986;21.452;2024-02-23T11:53:47;26.17;;;21.87;;
10699;SDS011;5401;41.986;21.452;2024-02-23T11:56:14;21.97;;;18.40;;
10699;SDS011;5401;41.986;21.452;2024-02-23T11:58:44;33.60;;;18.10;;
10699;SDS011;5401;41.986;21.452;2024-02-23T12:01:11;11.37;;;9.27;;
10699;SDS011;5401;41.986;21.452;2024-02-23T12:03:40;13.97;;;9.93;;
10699;SDS011;5401;41.986;21.452;2024-02-23T12:06:11;9.73;;;7.87;;
10699;SDS011;5401;41.986;21.452;2024-02-23T12:08:41;7.70;;;6.10;;
10699;SDS011;5401;41.986;21.452;2024-02-23T12:11:11;9.70;;;6.40;;
10699;SDS011;5401;41.986;21.452;2024-02-23T12:13:39;8.50;;;6.87;;
10699;SDS011;5401;41.986;21.452;2024-02-23T12:16:07;7.40;;;6.10;;
10699;SDS011;5401;41.986;21.452;2024-02-23T12:18:35;15.90;;;7.23;;
10699;SDS011;5401;41.986;21.452;2024-02-23T12:21:04;7.97;;;6.30;;
10699;SDS011;5401;41.986;21.452;2024-02-23T12:23:43;12.07;;;7.97;;
10699;SDS011;5401;41.986;21.452;2024-02-23T12:26:12;12.57;;;7.27;;
10699;SDS011;5401;41.986;21.452;2024-02-23T12:28:40;13.97;;;7.37;;
10699;SDS011;5401;41.986;21.452;2024-02-23T12:31:08;11.50;;;7.33;;
10699;SDS011;5401;41.986;21.452;2024-02-23T12:33:37;12.90;;;7.57;;
10699;SDS011;5401;41.986;21.452;2024-02-23T12:36:06;13.67;;;6.70;;
10699;SDS011;5401;41.986;21.452;2024-02-23T12:38:35;9.70;;;6.70;;
10699;SDS011;5401;41.986;21.452;2024-02-23T12:41:04;8.90;;;6.53;;
10699;SDS011;5401;41.986;21.452;2024-02-23T12:43:32;8.33;;;6.60;;
10699;SDS011;5401;41.986;21.452;2024-02-23T12:45:59;17.13;;;6.83;;
10699;SDS011;5401;41.986;21.452;2024-02-23T12:48:29;13.77;;;6.77;;
10699;SDS011;5401;41.986;21.452;2024-02-23T12:50:56;9.87;;;6.60;;
10699;SDS011;5401;41.986;21.452;2024-02-23T12:53:30;15.67;;;7.67;;
10699;SDS011;5401;41.986;21.452;2024-02-23T12:56:00;8.30;;;6.10;;
10699;SDS011;5401;41.986;21.452;2024-02-23T12:58:29;11.13;;;6.27;;
10699;SDS011;5401;41.986;21.452;2024-02-23T13:00:57;12.70;;;6.80;;
10699;SDS011;5401;41.986;21.452;2024-02-23T13:03:24;8.03;;;6.43;;
10699;SDS011;5401;41.986;21.452;2024-02-23T13:05:53;10.60;;;7.03;;
10699;SDS011;5401;41.986;21.452;2024-02-23T13:08:21;9.37;;;7.00;;
10699;SDS011;5401;41.986;21.452;2024-02-23T13:10:48;9.97;;;6.93;;
10699;SDS011;5401;41.986;21.452;2024-02-23T13:13:16;12.50;;;7.17;;
10699;SDS011;5401;41.986;21.452;2024-02-23T13:15:45;10.27;;;6.47;;
10699;SDS011;5401;41.986;21.452;2024-02-23T13:18:14;6.73;;;5.43;;
10699;SDS011;5401;41.986;21.452;2024-02-23T13:20:42;7.97;;;5.93;;
10699;SDS011;5401;41.986;21.452;2024-02-23T13:23:10;11.23;;;7.00;;
10699;SDS011;5401;41.986;21.452;2024-02-23T13:25:39;9.73;;;6.73;;
10699;SDS011;5401;41.986;21.452;2024-02-23T13:28:07;11.70;;;6.90;;
10699;SDS011;5401;41.986;21.452;2024-02-23T13:30:35;13.23;;;6.83;;
10699;SDS011;5401;41.986;21.452;2024-02-23T13:33:05;9.80;;;6.50;;
10699;SDS011;5401;41.986;21.452;2024-02-23T13:35:33;10.03;;;6.50;;
10699;SDS011;5401;41.986;21.452;2024-02-23T13:38:01;11.57;;;6.47;;
10699;SDS011;5401;41.986;21.452;2024-02-23T13:40:30;22.33;;;5.83;;
10699;SDS011;5401;41.986;21.452;2024-02-23T13:42:57;10.33;;;6.53;;
10699;SDS011;5401;41.986;21.452;2024-02-23T13:45:25;11.60;;;5.60;;
10699;SDS011;5401;41.986;21.452;2024-02-23T13:47:56;10.93;;;5.00;;
10699;SDS011;5401;41.986;21.452;2024-02-23T13:50:25;7.93;;;4.50;;
10699;SDS011;5401;41.986;21.452;2024-02-23T13:52:53;5.33;;;4.53;;
10699;SDS011;5401;41.986;21.452;2024-02-23T13:55:21;12.33;;;5.10;;
10699;SDS011;5401;41.986;21.452;2024-02-23T13:57:49;9.37;;;4.87;;
10699;SDS011;5401;41.986;21.452;2024-02-23T14:00:19;7.60;;;5.73;;
10699;SDS011;5401;41.986;21.452;2024-02-23T14:02:47;15.83;;;5.20;;
10699;SDS011;5401;41.986;21.452;2024-02-23T14:05:15;13.07;;;7.43;;
10699;SDS011;5401;41.986;21.452;2024-02-23T14:07:45;11.77;;;6.27;;
10699;SDS011;5401;41.986;21.452;2024-02-23T14:10:12;7.27;;;5.00;;
10699;SDS011;5401;41.986;21.452;2024-02-23T14:12:40;12.50;;;6.77;;
10699;SDS011;5401;41.986;21.452;2024-02-23T14:15:08;8.27;;;6.27;;
10699;SDS011;5401;41.986;21.452;2024-02-23T14:17:36;11.43;;;7.43;;
10699;SDS011;5401;41.986;21.452;2024-02-23T14:20:03;11.43;;;6.43;;
10699;SDS011;5401;41.986;21.452;2024-02-23T14:22:32;11.87;;;5.60;;
10699;SDS011;5401;41.986;21.452;2024-02-23T14:25:02;11.70;;;7.47;;
10699;SDS011;5401;41.986;21.452;2024-02-23T14:27:30;13.27;;;7.77;;
10699;SDS011;5401;41.986;21.452;2024-02-23T14:29:58;7.97;;;6.03;;
10699;SDS011;5401;41.986;21.452;2024-02-23T14:32:25;6.63;;;5.77;;